Great Falls Observed Data For Previous 48 Hours

Caption
Day and Hour Reservoir Elevation (behind dam)* Tailwater Elevation (below dam)* Average Hourly Discharge*
6/20/2018 1 AM CDT 799.60 650.38 160
6/20/2018 2 AM CDT 799.62 650.36 160
6/20/2018 3 AM CDT 799.62 650.33 160
6/20/2018 4 AM CDT 799.65 650.31 160
6/20/2018 5 AM CDT 799.66 650.29 160
6/20/2018 6 AM CDT 799.67 650.27 160
6/20/2018 7 AM CDT 799.69 650.25 160
6/20/2018 8 AM CDT 799.71 650.24 160
6/20/2018 9 AM CDT 799.72 650.22 160
6/20/2018 10 AM CDT 799.74 650.20 160
6/20/2018 11 AM CDT 799.75 650.19 160
6/20/2018 12 PM CDT 799.77 650.17 160
6/20/2018 1 PM CDT 799.73 650.40 207
6/20/2018 2 PM CDT 799.72 653.35 1,569
6/20/2018 3 PM CDT 799.71 653.36 1,554
6/20/2018 4 PM CDT 799.68 653.35 1,553
6/20/2018 5 PM CDT 799.63 653.36 1,559
6/20/2018 6 PM CDT 799.60 653.35 1,555
6/20/2018 7 PM CDT 799.62 650.92 198
6/20/2018 8 PM CDT 799.61 650.60 160
6/20/2018 9 PM CDT 799.63 650.53 160
6/20/2018 10 PM CDT 799.66 650.48 160
6/20/2018 11 PM CDT 799.66 650.45 160
6/21/2018 12 AM CDT 799.66 650.42 160
6/21/2018 1 AM CDT 799.69 650.39 160
6/21/2018 2 AM CDT 799.70 650.37 160
6/21/2018 3 AM CDT 799.70 650.34 160
6/21/2018 4 AM CDT 799.72 650.31 160
6/21/2018 5 AM CDT 799.74 650.29 160
6/21/2018 6 AM CDT 799.74 650.27 160
6/21/2018 7 AM CDT 799.76 650.26 160
6/21/2018 8 AM CDT 799.78 650.24 160
6/21/2018 9 AM CDT 799.79 650.23 160
6/21/2018 10 AM CDT 799.81 650.26 160
6/21/2018 11 AM CDT 799.83 650.31 160
6/21/2018 12 PM CDT 799.84 650.36 160
6/21/2018 1 PM CDT 799.81 650.66 209
6/21/2018 2 PM CDT 799.81 653.35 1,567
6/21/2018 3 PM CDT 799.79 653.35 1,552
6/21/2018 4 PM CDT 799.74 653.34 1,548
6/21/2018 5 PM CDT 799.69 653.35 1,550
6/21/2018 6 PM CDT 799.66 653.34 1,548
6/21/2018 7 PM CDT 799.62 653.34 1,547
6/21/2018 8 PM CDT 799.64 651.06 196
6/21/2018 9 PM CDT 799.63 650.61 160
6/21/2018 10 PM CDT 799.66 650.53 160
6/21/2018 11 PM CDT 799.68 650.48 160
6/22/2018 12 AM CDT 799.68 650.46 160

Elevations are in feet above sea level. Discharges are in cubic feet per second and are reported at the end of the hour.